Time;durP1;ratioP1;P1;durP2;ratioP2;P2;SDS_P1;SDS_P2;PMS_P1;PMS_P2;Temp;Humidity;BMP_temperature;BMP_pressure;BME280_temperature;BME280_humidity;BME280_pressure;Samples;Min_cycle;Max_cycle;Signal;HPM_P1;HPM_P2
2022/10/10 00:01:18;;;;;;;17.90;9.15;;;;;;;10.80;100.00;99699.13;1695738;84;21030;-74
2022/10/10 00:03:47;;;;;;;19.30;9.33;;;;;;;10.81;100.00;99692.67;1682457;85;21524;-75
2022/10/10 00:06:14;;;;;;;18.23;8.63;;;;;;;10.82;100.00;99686.25;1682055;85;21499;-76
2022/10/10 00:08:41;;;;;;;16.07;8.38;;;;;;;10.85;100.00;99693.15;1682355;85;21045;-76
2022/10/10 00:11:11;;;;;;;20.05;9.20;;;;;;;10.89;100.00;99693.14;1682082;85;21038;-76
2022/10/10 00:13:39;;;;;;;15.03;7.72;;;;;;;10.91;100.00;99694.31;1682557;85;21099;-76
2022/10/10 00:16:08;;;;;;;15.43;7.72;;;;;;;10.95;100.00;99688.86;1700434;83;21015;-77
2022/10/10 00:18:35;;;;;;;15.23;7.78;;;;;;;10.99;100.00;99691.00;1710436;84;21091;-75
2022/10/10 00:21:03;;;;;;;18.60;8.15;;;;;;;11.02;100.00;99691.99;1710153;84;21095;-75
2022/10/10 00:23:31;;;;;;;14.28;7.58;;;;;;;11.06;100.00;99688.41;1710172;84;21038;-75
2022/10/10 00:25:59;;;;;;;18.98;8.55;;;;;;;11.09;100.00;99684.52;1710339;84;21525;-75
2022/10/10 00:28:26;;;;;;;14.90;7.87;;;;;;;11.10;100.00;99682.12;1765328;79;21022;-74
2022/10/10 00:30:53;;;;;;;18.92;8.65;;;;;;;11.10;100.00;99682.98;1809864;79;21050;-75
2022/10/10 00:33:20;;;;;;;19.23;8.13;;;;;;;11.08;100.00;99678.24;1809775;79;21085;-76
2022/10/10 00:35:48;;;;;;;15.63;7.53;;;;;;;11.08;100.00;99689.06;1809744;79;21528;-75
2022/10/10 00:38:15;;;;;;;15.20;7.40;;;;;;;11.07;100.00;99687.40;1810027;78;21007;-75
2022/10/10 00:40:47;;;;;;;15.20;7.10;;;;;;;11.05;100.00;99685.39;1809710;79;21046;-75
2022/10/10 00:43:14;;;;;;;16.70;6.92;;;;;;;11.03;100.00;99686.09;1810134;79;20985;-76
2022/10/10 00:45:42;;;;;;;14.23;6.75;;;;;;;11.00;100.00;99686.45;1810062;78;21064;-76
2022/10/10 00:48:17;;;;;;;17.20;7.45;;;;;;;10.96;100.00;99682.41;1810031;79;21037;-76
2022/10/10 00:51:05;;;;;;;14.03;6.62;;;;;;;10.90;100.00;99683.98;1809866;79;21046;-75
2022/10/10 00:53:42;;;;;;;13.95;6.70;;;;;;;10.82;100.00;99688.13;1710476;83;21544;-75
2022/10/10 00:56:09;;;;;;;10.80;6.35;;;;;;;10.74;100.00;99690.88;1706975;84;21015;-76
2022/10/10 00:58:36;;;;;;;13.25;5.90;;;;;;;10.68;100.00;99695.16;1710409;84;21128;-75
2022/10/10 01:01:03;;;;;;;12.05;5.85;;;;;;;10.62;100.00;99692.66;1713897;83;20984;-76
2022/10/10 01:03:30;;;;;;;10.38;6.12;;;;;;;10.57;100.00;99694.20;1719931;83;21035;-75
2022/10/10 01:05:57;;;;;;;13.72;6.10;;;;;;;10.51;100.00;99693.58;1719996;83;21008;-74
2022/10/10 01:08:25;;;;;;;14.03;5.78;;;;;;;10.47;100.00;99689.56;1720042;83;21048;-76
2022/10/10 01:11:04;;;;;;;11.22;5.78;;;;;;;10.45;100.00;99701.91;1719664;83;21079;-74
2022/10/10 01:13:54;;;;;;;10.95;5.65;;;;;;;10.41;100.00;99696.50;1720081;83;21012;-75
2022/10/10 01:16:32;;;;;;;12.70;5.58;;;;;;;10.37;100.00;99700.59;1694170;83;21031;-75
2022/10/10 01:19:23;;;;;;;11.85;5.87;;;;;;;10.31;100.00;99694.04;1685180;84;21062;-75
2022/10/10 01:22:11;;;;;;;14.55;6.37;;;;;;;10.26;100.00;99703.98;1681524;85;21066;-74
2022/10/10 01:25:15;;;;;;;14.03;6.30;;;;;;;10.23;100.00;99709.77;1677129;85;21106;-75
2022/10/10 01:28:02;;;;;;;13.13;5.77;;;;;;;10.18;100.00;99705.41;1680830;85;21074;-75
2022/10/10 01:30:29;;;;;;;8.83;4.97;;;;;;;10.13;100.00;99708.27;1726715;80;21027;-75
2022/10/10 01:33:07;;;;;;;12.07;5.55;;;;;;;10.10;100.00;99711.35;1789024;80;21020;-75
2022/10/10 01:35:50;;;;;;;9.33;4.97;;;;;;;10.08;100.00;99719.63;1788750;80;20991;-75
2022/10/10 01:38:37;;;;;;;8.78;4.90;;;;;;;10.04;100.00;99719.14;1789025;80;20976;-75
2022/10/10 01:41:17;;;;;;;13.35;4.72;;;;;;;10.02;100.00;99721.66;1788879;80;21027;-74
2022/10/10 01:43:44;;;;;;;8.80;4.85;;;;;;;10.00;100.00;99731.29;1692810;84;21065;-74
2022/10/10 01:46:16;;;;;;;7.25;4.47;;;;;;;9.98;100.00;99731.14;1694909;84;21030;-74
2022/10/10 01:48:47;;;;;;;9.85;4.65;;;;;;;9.96;100.00;99738.59;1692409;85;21042;-75
2022/10/10 01:51:48;;;;;;;11.43;4.95;;;;;;;9.93;100.00;99738.92;1654148;87;21086;-76
2022/10/10 01:54:41;;;;;;;8.35;4.53;;;;;;;9.91;100.00;99737.74;1654159;87;21095;-75
2022/10/10 01:57:25;;;;;;;6.90;4.25;;;;;;;9.88;100.00;99738.95;1654396;87;21082;-76
2022/10/10 02:00:09;;;;;;;16.17;4.78;;;;;;;9.88;100.00;99749.75;1653987;87;21608;-75
2022/10/10 02:03:02;;;;;;;8.45;4.53;;;;;;;9.88;100.00;99748.41;1636221;88;21093;-76
2022/10/10 02:06:00;;;;;;;8.38;4.42;;;;;;;9.89;100.00;99744.66;1627814;88;21081;-75
2022/10/10 02:08:35;;;;;;;12.23;5.30;;;;;;;9.93;100.00;99755.13;1638226;88;20994;-76
2022/10/10 02:11:09;;;;;;;9.13;4.58;;;;;;;9.95;100.00;99748.55;1636790;88;21513;-75
2022/10/10 02:13:43;;;;;;;12.07;5.05;;;;;;;9.98;100.00;99763.55;1636001;88;21495;-75
2022/10/10 02:16:26;;;;;;;10.75;4.37;;;;;;;9.96;100.00;99752.92;1599749;89;21617;-74
2022/10/10 02:18:53;;;;;;;7.83;4.55;;;;;;;9.97;100.00;99755.97;1606181;89;21067;-74
2022/10/10 02:21:20;;;;;;;7.40;4.50;;;;;;;9.97;100.00;99754.62;1605997;89;21133;-75
2022/10/10 02:23:47;;;;;;;12.03;4.55;;;;;;;9.95;100.00;99752.61;1606135;89;21079;-75
2022/10/10 02:26:16;;;;;;;7.60;4.15;;;;;;;9.95;100.00;99753.95;1605954;89;21527;-74
2022/10/10 02:28:51;;;;;;;7.40;4.50;;;;;;;9.94;100.00;99758.18;1606082;89;21156;-75
2022/10/10 02:31:38;;;;;;;8.20;4.45;;;;;;;9.94;100.00;99759.53;1606229;89;21180;-75
2022/10/10 02:34:18;;;;;;;9.45;4.47;;;;;;;9.91;100.00;99760.70;1606112;89;21116;-75
2022/10/10 02:36:49;;;;;;;8.60;4.78;;;;;;;9.88;100.00;99759.72;1605894;89;21596;-75
2022/10/10 02:39:17;;;;;;;8.63;4.62;;;;;;;9.84;100.00;99767.33;1606184;89;21529;-75
2022/10/10 02:41:44;;;;;;;8.68;4.25;;;;;;;9.82;100.00;99765.28;1646927;87;21050;-75
2022/10/10 02:44:11;;;;;;;7.35;4.60;;;;;;;9.79;100.00;99767.00;1647076;87;21025;-74
2022/10/10 02:46:38;;;;;;;7.08;4.20;;;;;;;9.76;100.00;99770.55;1646875;87;21603;-75
2022/10/10 02:49:07;;;;;;;8.63;4.10;;;;;;;9.73;100.00;99778.47;1692082;85;21533;-76
2022/10/10 02:51:34;;;;;;;9.88;4.50;;;;;;;9.71;100.00;99781.86;1694974;85;21121;-76
2022/10/10 02:54:01;;;;;;;8.78;4.45;;;;;;;9.69;100.00;99779.33;1694630;85;21055;-77
2022/10/10 02:56:28;;;;;;;9.45;4.40;;;;;;;9.66;100.00;99775.61;1694715;85;21043;-75
2022/10/10 02:58:56;;;;;;;8.50;4.70;;;;;;;9.66;100.00;99783.70;1694609;85;21118;-76
2022/10/10 03:01:23;;;;;;;8.45;4.78;;;;;;;9.65;100.00;99785.23;1717890;83;21041;-76
2022/10/10 03:03:50;;;;;;;10.58;4.83;;;;;;;9.65;100.00;99789.27;1737420;83;21076;-76
2022/10/10 03:06:17;;;;;;;9.18;4.50;;;;;;;9.63;100.00;99785.91;1737358;83;21498;-76
2022/10/10 03:08:43;;;;;;;10.55;4.50;;;;;;;9.61;100.00;99787.94;1737389;83;21581;-76
2022/10/10 03:11:10;;;;;;;8.35;4.55;;;;;;;9.61;100.00;99788.77;1737266;83;21106;-75
2022/10/10 03:13:38;;;;;;;11.40;4.72;;;;;;;9.64;100.00;99790.30;1790846;80;21035;-75
2022/10/10 03:16:05;;;;;;;8.50;4.70;;;;;;;9.66;100.00;99801.25;1775513;80;20959;-76
2022/10/10 03:18:34;;;;;;;8.93;4.65;;;;;;;9.68;100.00;99794.34;1762843;81;21030;-74
2022/10/10 03:21:01;;;;;;;7.25;4.00;;;;;;;9.68;100.00;99791.16;1762810;81;21046;-75
2022/10/10 03:23:27;;;;;;;8.15;4.37;;;;;;;9.69;100.00;99796.04;1763102;81;21046;-77
2022/10/10 03:25:54;;;;;;;8.75;4.50;;;;;;;9.68;100.00;99792.99;1754714;81;21007;-76
2022/10/10 03:28:21;;;;;;;9.25;4.65;;;;;;;9.67;100.00;99793.51;1752369;82;21552;-76
2022/10/10 03:30:47;;;;;;;9.20;4.95;;;;;;;9.67;100.00;99796.20;1752623;82;21015;-76
2022/10/10 03:33:14;;;;;;;9.10;5.10;;;;;;;9.67;100.00;99785.92;1752335;80;20995;-74
2022/10/10 03:35:41;;;;;;;10.78;4.85;;;;;;;9.63;100.00;99794.87;1752474;82;21066;-75
2022/10/10 03:38:07;;;;;;;9.20;4.45;;;;;;;9.64;100.00;99785.74;1752640;82;20983;-74
2022/10/10 03:40:40;;;;;;;12.53;4.90;;;;;;;9.65;100.00;99792.84;1752260;82;21070;-75
2022/10/10 03:43:08;;;;;;;9.38;4.40;;;;;;;9.68;100.00;99795.69;1752497;82;21532;-75
2022/10/10 03:45:35;;;;;;;12.25;4.95;;;;;;;9.68;100.00;99795.20;1727070;82;21065;-76
2022/10/10 03:48:02;;;;;;;8.83;4.53;;;;;;;9.71;100.00;99781.86;1752556;82;21014;-76
2022/10/10 03:50:30;;;;;;;9.43;4.20;;;;;;;9.76;100.00;99790.28;1752180;82;21043;-75
2022/10/10 03:52:57;;;;;;;9.63;4.58;;;;;;;9.79;100.00;99789.09;1752671;82;20951;-74
2022/10/10 03:55:24;;;;;;;7.72;4.28;;;;;;;9.82;100.00;99781.48;1752501;82;21019;-75
2022/10/10 03:57:51;;;;;;;8.38;4.28;;;;;;;9.88;100.00;99785.38;1752309;82;21046;-76
2022/10/10 04:00:17;;;;;;;11.30;5.30;;;;;;;9.93;100.00;99787.54;1755022;81;21026;-76
2022/10/10 04:02:44;;;;;;;11.45;5.15;;;;;;;9.97;100.00;99780.28;1779266;80;20996;-75
2022/10/10 04:05:11;;;;;;;8.78;4.70;;;;;;;10.00;100.00;99775.02;1779187;80;21558;-75
2022/10/10 04:07:40;;;;;;;9.68;4.42;;;;;;;10.02;100.00;99771.15;1779119;81;21479;-75
2022/10/10 04:10:08;;;;;;;7.25;4.00;;;;;;;10.06;100.00;99772.47;1779205;80;21040;-76
2022/10/10 04:12:36;;;;;;;9.10;4.97;;;;;;;10.11;100.00;99774.67;1779578;80;21029;-75
2022/10/10 04:15:04;;;;;;;10.28;4.95;;;;;;;10.17;100.00;99771.25;1777221;80;20981;-76
2022/10/10 04:17:32;;;;;;;8.58;4.30;;;;;;;10.20;100.00;99760.10;1768585;81;21002;-74
2022/10/10 04:19:59;;;;;;;8.03;4.50;;;;;;;10.25;100.00;99755.02;1768673;81;21026;-76
2022/10/10 04:22:26;;;;;;;10.65;4.75;;;;;;;10.29;100.00;99754.64;1769578;81;21050;-75
2022/10/10 04:24:52;;;;;;;8.70;4.50;;;;;;;10.34;100.00;99761.74;1769701;80;21575;-75
2022/10/10 04:27:21;;;;;;;9.43;4.65;;;;;;;10.36;100.00;99757.03;1768523;81;21449;-75
2022/10/10 04:29:48;;;;;;;8.10;4.40;;;;;;;10.38;100.00;99757.17;1768639;81;21054;-76
2022/10/10 04:32:15;;;;;;;6.15;4.42;;;;;;;10.41;100.00;99759.53;1768656;81;20999;-75
2022/10/10 04:34:42;;;;;;;11.75;4.90;;;;;;;10.45;100.00;99762.72;1768665;81;21039;-75
2022/10/10 04:37:09;;;;;;;6.67;4.03;;;;;;;10.50;100.00;99766.23;1768606;81;21105;-75
2022/10/10 04:39:36;;;;;;;9.08;4.08;;;;;;;10.55;100.00;99753.88;1768689;81;21524;-75
2022/10/10 04:42:02;;;;;;;8.40;4.50;;;;;;;10.58;100.00;99752.16;1769024;81;21516;-77
2022/10/10 04:44:29;;;;;;;8.70;4.05;;;;;;;10.60;100.00;99762.27;1768707;81;21082;-74
2022/10/10 04:46:56;;;;;;;6.80;4.15;;;;;;;10.64;100.00;99762.76;1768698;81;21019;-76
2022/10/10 04:49:23;;;;;;;5.47;3.98;;;;;;;10.66;100.00;99761.23;1768855;81;21058;-76
2022/10/10 04:51:50;;;;;;;7.62;4.00;;;;;;;10.69;100.00;99769.83;1768567;81;21042;-76
2022/10/10 04:54:17;;;;;;;7.95;4.30;;;;;;;10.71;100.00;99770.52;1768610;81;21070;-75
2022/10/10 04:56:44;;;;;;;8.35;4.05;;;;;;;10.73;100.00;99774.37;1768523;81;21023;-77
2022/10/10 04:59:11;;;;;;;7.55;4.08;;;;;;;10.75;100.00;99775.06;1768917;81;21462;-76
2022/10/10 05:01:38;;;;;;;7.70;3.90;;;;;;;10.78;100.00;99774.68;1773712;79;21008;-75
2022/10/10 05:04:05;;;;;;;8.13;3.62;;;;;;;10.81;100.00;99780.57;1776446;81;21028;-76
2022/10/10 05:06:32;;;;;;;6.05;3.77;;;;;;;10.83;100.00;99782.58;1776347;81;21545;-75
2022/10/10 05:08:59;;;;;;;7.05;4.05;;;;;;;10.86;100.00;99778.70;1775832;81;21029;-74
2022/10/10 05:11:26;;;;;;;5.53;3.40;;;;;;;10.90;100.00;99777.30;1776337;81;21016;-74
2022/10/10 05:13:53;;;;;;;10.60;3.98;;;;;;;10.97;100.00;99788.25;1775635;81;21131;-74
2022/10/10 05:16:21;;;;;;;6.67;3.80;;;;;;;11.02;100.00;99780.44;1801098;79;21026;-81
2022/10/10 05:18:50;;;;;;;11.95;6.15;;;;;;;11.06;100.00;99774.98;1810272;79;21050;-81
2022/10/10 05:21:17;;;;;;;27.25;14.13;;;;;;;11.13;100.00;99777.83;1803853;79;21014;-78
2022/10/10 05:23:44;;;;;;;13.22;6.65;;;;;;;11.18;100.00;99778.13;1779702;79;21015;-80
2022/10/10 05:26:11;;;;;;;16.23;7.62;;;;;;;11.25;100.00;99779.59;1805498;78;20979;-78
2022/10/10 05:28:38;;;;;;;11.45;6.60;;;;;;;11.31;100.00;99784.27;1808537;79;21041;-76
2022/10/10 05:31:05;;;;;;;15.30;8.45;;;;;;;11.35;100.00;99793.20;1793920;79;21027;-75
2022/10/10 05:33:34;;;;;;;7.90;4.00;;;;;;;11.39;100.00;99792.33;1799734;79;21108;-77
2022/10/10 05:36:06;;;;;;;15.32;7.97;;;;;;;11.43;100.00;99792.28;1726597;82;21017;-75
2022/10/10 05:38:33;;;;;;;23.32;13.80;;;;;;;11.48;100.00;99796.64;1719893;82;21032;-77
2022/10/10 05:41:01;;;;;;;41.95;24.45;;;;;;;11.56;100.00;99793.02;1741086;82;21013;-83
2022/10/10 05:43:28;;;;;;;14.00;7.62;;;;;;;11.64;100.00;99790.76;1737839;82;22491;-75
2022/10/10 05:45:56;;;;;;;7.55;4.92;;;;;;;11.72;100.00;99797.43;1726948;83;21010;-78
2022/10/10 05:48:24;;;;;;;8.20;4.30;;;;;;;11.80;100.00;99795.17;1727943;82;21006;-78
2022/10/10 05:50:53;;;;;;;8.75;4.55;;;;;;;11.87;100.00;99799.66;1738009;82;21008;-77
2022/10/10 05:53:22;;;;;;;10.40;4.22;;;;;;;11.93;100.00;99790.83;1725446;83;20982;-78
2022/10/10 05:55:49;;;;;;;7.35;4.05;;;;;;;11.96;100.00;99800.44;1725099;82;21069;-85
2022/10/10 05:58:15;;;;;;;6.75;3.80;;;;;;;11.98;100.00;99802.45;1725237;83;20994;-79
2022/10/10 06:00:45;;;;;;;7.78;3.67;;;;;;;11.99;100.00;99802.79;1725132;83;21165;-79
2022/10/10 06:03:15;;;;;;;4.72;3.50;;;;;;;12.01;100.00;99802.08;1747619;82;21540;-74
2022/10/10 06:05:47;;;;;;;4.35;3.50;;;;;;;12.05;100.00;99802.55;1740539;82;21169;-74
2022/10/10 06:08:15;;;;;;;4.17;3.37;;;;;;;12.08;100.00;99810.31;1740711;82;21504;-74
2022/10/10 06:10:44;;;;;;;5.78;3.77;;;;;;;12.11;100.00;99808.56;1738145;82;21051;-72
2022/10/10 06:13:28;;;;;;;29.40;16.05;;;;;;;12.14;100.00;99810.39;1733017;81;21064;-74
2022/10/10 06:15:57;;;;;;;138.28;77.58;;;;;;;12.18;100.00;99808.14;1704633;82;21012;-73
2022/10/10 06:18:25;;;;;;;28.50;17.15;;;;;;;12.23;100.00;99803.00;1739505;82;21087;-74
2022/10/10 06:20:53;;;;;;;14.58;8.18;;;;;;;12.30;100.00;99809.87;1740224;82;21585;-73
2022/10/10 06:23:20;;;;;;;15.75;7.20;;;;;;;12.36;100.00;99813.20;1739688;82;21083;-71
2022/10/10 06:25:50;;;;;;;14.75;7.65;;;;;;;12.42;100.00;99818.39;1739699;82;21020;-72
2022/10/10 06:28:17;;;;;;;49.75;27.77;;;;;;;12.45;100.00;99820.20;1719937;82;21119;-79
2022/10/10 06:30:47;;;;;;;27.32;16.82;;;;;;;12.47;100.00;99822.73;1729367;82;21796;-79
2022/10/10 06:33:14;;;;;;;16.67;7.75;;;;;;;12.48;100.00;99823.91;1778550;79;21008;-78
2022/10/10 06:35:47;;;;;;;35.20;19.48;;;;;;;12.49;100.00;99821.50;1805393;79;20963;-80
2022/10/10 06:38:15;;;;;;;22.60;11.78;;;;;;;12.53;100.00;99824.67;1813230;79;20973;-83
2022/10/10 06:40:42;;;;;;;44.70;28.00;;;;;;;12.58;100.00;99824.95;1789026;79;21533;-80
2022/10/10 06:43:11;;;;;;;13.95;6.35;;;;;;;12.63;100.00;99823.04;1782721;80;21008;-77
2022/10/10 06:45:41;;;;;;;12.40;6.28;;;;;;;12.67;100.00;99817.55;1782518;80;21482;-79
2022/10/10 06:48:11;;;;;;;10.32;5.67;;;;;;;12.72;100.00;99819.17;1782894;80;21066;-79
2022/10/10 06:50:39;;;;;;;13.43;5.90;;;;;;;12.78;100.00;99815.69;1782549;80;21024;-78
2022/10/10 06:53:06;;;;;;;9.48;5.03;;;;;;;12.87;100.00;99809.63;1782646;80;21032;-79
2022/10/10 06:55:34;;;;;;;10.10;4.42;;;;;;;12.94;100.00;99806.47;1782754;80;21012;-78
2022/10/10 06:58:01;;;;;;;10.88;5.67;;;;;;;13.03;100.00;99800.41;1782668;80;21024;-82
2022/10/10 07:00:28;;;;;;;9.63;5.30;;;;;;;13.15;100.00;99800.22;1784697;79;21037;-79
2022/10/10 07:02:54;;;;;;;12.82;5.00;;;;;;;13.24;100.00;99797.72;1783057;80;21506;-76
2022/10/10 07:05:21;;;;;;;8.30;5.20;;;;;;;13.34;100.00;99795.22;1783924;80;20981;-80
2022/10/10 07:07:50;;;;;;;13.35;7.08;;;;;;;13.38;100.00;99787.83;1784191;80;21024;-83
2022/10/10 07:10:19;;;;;;;10.18;5.10;;;;;;;13.42;100.00;99793.70;1783330;80;21514;-78
2022/10/10 07:12:46;;;;;;;9.65;4.90;;;;;;;13.42;100.00;99790.50;1782405;80;21533;-78
2022/10/10 07:15:14;;;;;;;6.62;4.53;;;;;;;13.41;100.00;99786.61;1780825;80;20971;-77
2022/10/10 07:17:41;;;;;;;8.60;4.30;;;;;;;13.42;100.00;99785.06;1750054;82;21052;-77
2022/10/10 07:20:10;;;;;;;12.00;4.92;;;;;;;13.43;100.00;99784.01;1750761;82;21015;-78
2022/10/10 07:22:37;;;;;;;10.63;5.17;;;;;;;13.43;100.00;99789.97;1741756;82;21046;-77
2022/10/10 07:25:05;;;;;;;13.35;5.72;;;;;;;13.42;100.00;99797.28;1722619;83;21002;-80
2022/10/10 07:27:33;;;;;;;8.40;4.40;;;;;;;13.43;100.00;99796.77;1712496;82;21594;-82
2022/10/10 07:30:00;;;;;;;8.55;4.47;;;;;;;13.43;100.00;99800.30;1717113;82;21011;-78
2022/10/10 07:32:27;;;;;;;6.37;4.05;;;;;;;13.45;100.00;99798.23;1764792;80;20987;-81
2022/10/10 07:35:05;;;;;;;12.40;4.47;;;;;;;13.49;100.00;99801.39;1777863;81;20967;-81
2022/10/10 07:37:33;;;;;;;11.55;5.53;;;;;;;13.53;100.00;99797.27;1692674;85;21040;-83
2022/10/10 07:40:00;;;;;;;14.60;5.97;;;;;;;13.53;100.00;99799.98;1691817;85;21028;-78
2022/10/10 07:42:26;;;;;;;11.45;5.40;;;;;;;13.52;100.00;99807.80;1691887;85;21023;-78
2022/10/10 07:44:56;;;;;;;10.30;4.40;;;;;;;13.55;100.00;99802.51;1691302;85;20982;-82
2022/10/10 07:47:23;;;;;;;11.93;4.72;;;;;;;13.61;100.00;99803.90;1663054;86;21078;-79
2022/10/10 07:49:50;;;;;;;8.50;4.00;;;;;;;13.65;100.00;99812.50;1692351;85;21101;-81
2022/10/10 07:52:16;;;;;;;10.65;4.50;;;;;;;13.71;100.00;99809.53;1639720;86;21018;-82
2022/10/10 07:54:45;;;;;;;9.05;4.37;;;;;;;13.75;100.00;99812.17;1725976;83;21528;-82
2022/10/10 07:57:12;;;;;;;9.63;4.20;;;;;;;13.75;100.00;99809.45;1725461;80;21065;-81
2022/10/10 07:59:39;;;;;;;10.78;5.28;;;;;;;13.73;100.00;99812.36;1726017;83;21053;-82
2022/10/10 08:02:08;;;;;;;12.43;5.58;;;;;;;13.66;100.00;99816.91;1668344;83;21121;-81
2022/10/10 08:04:35;;;;;;;9.08;4.78;;;;;;;13.58;100.00;99819.26;1658139;86;21013;-81
2022/10/10 08:07:05;;;;;;;15.95;4.97;;;;;;;13.55;100.00;99810.66;1657919;86;21030;-80
2022/10/10 08:09:36;;;;;;;10.65;4.55;;;;;;;13.54;100.00;99809.80;1742410;82;21076;-79
2022/10/10 08:12:08;;;;;;;11.95;4.67;;;;;;;13.54;100.00;99811.16;1719342;82;21135;-81
2022/10/10 08:14:36;;;;;;;7.10;3.98;;;;;;;13.57;100.00;99805.86;1742674;79;21025;-79
2022/10/10 08:17:05;;;;;;;10.48;4.65;;;;;;;13.60;100.00;99809.55;1788212;79;21010;-79
2022/10/10 08:19:35;;;;;;;8.00;4.00;;;;;;;13.66;100.00;99801.96;1786939;79;21134;-81
2022/10/10 08:22:04;;;;;;;8.78;4.75;;;;;;;13.75;100.00;99805.38;1811409;79;21070;-79
2022/10/10 08:24:31;;;;;;;11.60;4.65;;;;;;;13.88;100.00;99812.25;1811745;79;20990;-87
2022/10/10 08:26:57;;;;;;;7.58;4.25;;;;;;;14.03;100.00;99804.84;1817061;79;21003;-84
2022/10/10 08:29:24;;;;;;;7.28;3.72;;;;;;;14.19;100.00;99805.03;1820079;79;21033;-81
2022/10/10 08:31:51;;;;;;;16.70;4.05;;;;;;;14.33;100.00;99801.88;1820286;79;21029;-79
2022/10/10 08:34:19;;;;;;;16.85;5.75;;;;;;;14.43;100.00;99808.32;1818169;79;21038;-77
2022/10/10 08:36:46;;;;;;;8.65;4.00;;;;;;;14.43;100.00;99820.56;1818216;79;21624;-81
2022/10/10 08:39:12;;;;;;;16.30;5.42;;;;;;;14.40;100.00;99831.30;1787496;79;21535;-77
2022/10/10 08:41:50;;;;;;;16.50;5.97;;;;;;;14.34;100.00;99834.84;1818628;79;21069;-81
2022/10/10 08:44:38;;;;;;;9.75;5.05;;;;;;;14.19;100.00;99839.02;1819050;79;21025;-78
2022/10/10 08:47:10;;;;;;;9.38;4.17;;;;;;;14.19;100.00;99839.02;1818438;79;21018;-82
2022/10/10 08:49:41;;;;;;;;;;;;;;;14.17;100.00;99845.72;1820250;79;21037;-79
2022/10/10 08:52:31;;;;;;;21.48;4.50;;;;;;;14.13;100.00;99842.55;1817998;79;20090;-86
2022/10/10 08:55:06;;;;;;;8.23;3.90;;;;;;;14.11;100.00;99843.78;1819326;79;21045;-82
2022/10/10 08:57:46;;;;;;;8.20;3.90;;;;;;;14.04;100.00;99852.74;1820011;79;21081;-83
2022/10/10 09:00:20;;;;;;;19.55;10.10;;;;;;;14.00;100.00;99860.12;1817356;78;21041;-82
2022/10/10 09:02:59;;;;;;;58.42;31.42;;;;;;;13.96;100.00;99869.72;1792635;79;21025;-81
2022/10/10 09:06:05;;;;;;;30.05;15.30;;;;;;;13.96;100.00;99864.28;1807189;79;20977;-72
2022/10/10 09:09:10;;;;;;;14.15;6.70;;;;;;;13.90;100.00;99866.41;1803788;79;21022;-72
2022/10/10 09:12:17;;;;;;;9.78;4.70;;;;;;;13.90;100.00;99866.41;1810319;78;20997;-75
2022/10/10 09:15:22;;;;;;;5.62;3.12;;;;;;;13.81;100.00;99870.66;1820429;79;21022;-72
2022/10/10 09:18:22;;;;;;;6.17;3.60;;;;;;;13.74;100.00;99868.90;1774287;80;21054;-75
2022/10/10 09:21:15;;;;;;;7.35;3.40;;;;;;;13.66;100.00;99874.80;1770879;79;21505;-75
2022/10/10 09:24:01;;;;;;;5.30;2.95;;;;;;;13.59;100.00;99871.70;1766825;81;21458;-74
2022/10/10 09:26:32;;;;;;;5.85;3.27;;;;;;;13.55;100.00;99864.98;1704593;84;21091;-74
2022/10/10 09:29:07;;;;;;;10.23;3.55;;;;;;;13.53;100.00;99867.89;1704560;84;21578;-74
2022/10/10 09:31:39;;;;;;;6.08;3.50;;;;;;;13.48;100.00;99868.47;1704622;84;21084;-75
2022/10/10 09:34:15;;;;;;;5.97;3.20;;;;;;;13.46;100.00;99872.42;1695133;85;21018;-74
2022/10/10 09:36:43;;;;;;;18.12;4.20;;;;;;;13.44;100.00;99873.97;1697312;85;21045;-78
2022/10/10 09:39:24;;;;;;;14.38;3.85;;;;;;;13.39;100.00;99878.31;1696471;85;21029;-77
2022/10/10 09:41:55;;;;;;;5.90;3.00;;;;;;;13.32;100.00;99872.80;1692320;85;21057;-78
2022/10/10 09:44:22;;;;;;;11.22;2.90;;;;;;;13.29;100.00;99882.13;1695910;85;21089;-76
2022/10/10 09:46:50;;;;;;;8.78;3.60;;;;;;;13.24;100.00;99876.46;1695971;85;21096;-81
2022/10/10 09:49:17;;;;;;;5.92;2.58;;;;;;;13.20;100.00;99877.02;1674008;85;20966;-80
2022/10/10 09:51:44;;;;;;;8.10;3.27;;;;;;;13.15;100.00;99876.23;1674263;85;21140;-81
2022/10/10 09:54:15;;;;;;;4.40;2.90;;;;;;;13.09;100.00;99875.12;1696285;85;21108;-78
2022/10/10 09:57:02;;;;;;;4.58;2.87;;;;;;;13.07;100.00;99877.73;1666185;85;21067;-76
2022/10/10 09:59:44;;;;;;;5.22;2.80;;;;;;;13.03;100.00;99877.77;1674204;85;21018;-79
2022/10/10 10:02:23;;;;;;;3.27;2.58;;;;;;;12.96;100.00;99872.28;1677135;84;21120;-78
2022/10/10 10:04:51;;;;;;;3.35;3.00;;;;;;;12.90;100.00;99877.09;1648043;85;21079;-78
2022/10/10 10:07:32;;;;;;;3.33;3.00;;;;;;;12.86;100.00;99871.73;1669996;85;21111;-80
2022/10/10 10:10:01;;;;;;;3.42;2.55;;;;;;;12.84;100.00;99871.09;1671908;85;21483;-76
2022/10/10 10:12:38;;;;;;;7.35;2.80;;;;;;;12.82;100.00;99860.91;1668108;85;21017;-77
2022/10/10 10:15:19;;;;;;;2.80;2.33;;;;;;;12.80;100.00;99862.48;1677789;85;21081;-79
2022/10/10 10:18:12;;;;;;;48.50;24.18;;;;;;;12.80;100.00;99861.63;1631216;88;21053;-79
2022/10/10 10:20:41;;;;;;;62.33;34.85;;;;;;;12.80;100.00;99861.13;1633653;87;21074;-76
2022/10/10 10:23:34;;;;;;;15.13;8.08;;;;;;;12.78;100.00;99855.55;1634312;88;21006;-78
2022/10/10 10:26:22;;;;;;;6.42;3.95;;;;;;;12.75;100.00;99862.70;1636019;85;21066;-82
2022/10/10 10:28:51;;;;;;;5.85;3.72;;;;;;;12.72;100.00;99861.23;1639794;87;21568;-82
2022/10/10 10:31:48;;;;;;;7.78;3.02;;;;;;;12.68;100.00;99858.05;1639875;86;21164;-76
2022/10/10 10:34:46;;;;;;;6.65;2.85;;;;;;;12.68;100.00;99856.70;1652567;86;21015;-77
2022/10/10 10:37:27;;;;;;;7.75;3.58;;;;;;;12.65;100.00;99846.73;1645952;86;21013;-79
2022/10/10 10:40:03;;;;;;;550.92;359.43;;;;;;;12.61;100.00;99853.06;1638966;86;21097;-81
2022/10/10 10:42:53;;;;;;;54.40;32.38;;;;;;;12.58;100.00;99848.53;1642322;86;21089;-78
2022/10/10 10:45:40;;;;;;;20.35;11.03;;;;;;;12.54;100.00;99848.89;1641663;86;21029;-79
2022/10/10 10:48:32;;;;;;;30.95;12.35;;;;;;;12.51;100.00;99845.72;1645382;86;21131;-85
2022/10/10 10:51:22;;;;;;;22.95;7.53;;;;;;;12.45;100.00;99841.06;1648649;86;21561;-80
2022/10/10 10:54:03;;;;;;;10.68;4.08;;;;;;;12.41;100.00;99841.09;1643198;86;21109;-76
2022/10/10 10:56:42;;;;;;;8.55;3.87;;;;;;;12.35;100.00;99831.33;1630039;86;21508;-76
2022/10/10 10:59:35;;;;;;;11.30;3.90;;;;;;;12.30;100.00;99829.69;1603945;89;21062;-76
2022/10/10 11:02:47;;;;;;;17.70;4.97;;;;;;;12.21;100.00;99824.04;1600844;88;21165;-75
2022/10/10 11:05:25;;;;;;;15.30;4.70;;;;;;;12.11;100.00;99817.56;1605179;89;21074;-79
2022/10/10 11:08:29;;;;;;;13.08;4.10;;;;;;;11.99;100.00;99814.12;1602533;89;21018;-76
2022/10/10 11:11:54;;;;;;;14.07;4.20;;;;;;;11.91;100.00;99810.47;1605106;89;21149;-78
2022/10/10 11:14:36;;;;;;;8.73;2.95;;;;;;;11.87;100.00;99796.94;1655445;85;21069;-76
2022/10/10 11:17:18;;;;;;;15.50;4.83;;;;;;;11.86;100.00;99803.37;1695028;85;21077;-77
2022/10/10 11:19:55;;;;;;;20.43;4.97;;;;;;;11.89;100.00;99798.95;1695748;85;21085;-77
2022/10/10 11:22:20;;;;;;;16.77;4.05;;;;;;;11.90;100.00;99795.26;1579860;90;21714;-79
2022/10/10 11:24:57;;;;;;;17.65;4.20;;;;;;;11.87;100.00;99796.94;1578986;89;21075;-76
2022/10/10 11:27:33;;;;;;;9.08;3.08;;;;;;;11.80;100.00;99805.48;1527852;92;21178;-77
2022/10/10 11:30:07;;;;;;;10.35;3.50;;;;;;;11.72;100.00;99802.36;1531247;92;21066;-75
2022/10/10 11:33:11;;;;;;;12.03;3.72;;;;;;;11.66;100.00;99794.95;1510419;95;21162;-74
2022/10/10 11:35:43;;;;;;;;;;;;;;;11.59;100.00;99795.36;1508884;94;21201;-73
2022/10/10 11:38:30;;;;;;;13.65;3.80;;;;;;;11.30;100.00;99800.20;1485469;97;20138;-73
2022/10/10 11:41:24;;;;;;;14.23;4.25;;;;;;;11.30;100.00;99800.20;1485402;97;21101;-73
2022/10/10 11:44:00;;;;;;;15.25;4.70;;;;;;;11.14;100.00;99808.77;1444640;98;21172;-74
2022/10/10 11:46:37;;;;;;;14.20;4.20;;;;;;;11.01;100.00;99809.38;1420436;101;21184;-75
2022/10/10 11:49:19;;;;;;;13.03;3.55;;;;;;;10.93;100.00;99822.11;1412852;102;21704;-74